createdAt,value
2023-01-17T00:02:20.896Z,20.45
2023-01-17T00:05:07.039Z,22.02
2023-01-17T00:07:53.015Z,19.30
2023-01-17T00:10:23.388Z,21.95
2023-01-17T00:12:57.451Z,18.37
2023-01-17T00:15:26.273Z,21.70
2023-01-17T00:17:53.860Z,23.30
2023-01-17T00:20:42.713Z,21.45
2023-01-17T00:23:37.740Z,23.98
2023-01-17T00:28:35.974Z,18.35
2023-01-17T00:31:03.979Z,21.50
2023-01-17T00:33:31.466Z,22.40
2023-01-17T00:35:59.999Z,19.48
2023-01-17T00:38:29.626Z,22.27
2023-01-17T00:41:04.473Z,22.27
2023-01-17T00:43:51.012Z,27.92
2023-01-17T00:46:37.334Z,25.00
2023-01-17T00:49:24.114Z,22.90
2023-01-17T00:52:09.958Z,23.87
2023-01-17T00:54:55.873Z,23.90
2023-01-17T00:57:42.401Z,26.48
2023-01-17T01:00:28.777Z,22.25
2023-01-17T01:03:14.168Z,23.95
2023-01-17T01:06:01.477Z,22.20
2023-01-17T01:08:48.482Z,28.30
2023-01-17T01:11:40.082Z,22.73
2023-01-17T01:14:27.510Z,22.92
2023-01-17T01:17:16.491Z,23.60
2023-01-17T01:20:01.951Z,25.48
2023-01-17T01:22:47.965Z,23.50
2023-01-17T01:25:34.009Z,18.17
2023-01-17T01:28:24.649Z,24.08
2023-01-17T01:31:10.305Z,19.20
2023-01-17T01:33:37.715Z,21.85
2023-01-17T01:36:07.273Z,17.87
2023-01-17T01:38:34.285Z,15.00
2023-01-17T01:41:01.666Z,21.35
2023-01-17T01:43:49.974Z,17.20
2023-01-17T01:46:29.230Z,17.60
2023-01-17T01:49:02.460Z,18.83
2023-01-17T01:51:33.695Z,16.50
2023-01-17T01:54:25.642Z,15.43
2023-01-17T01:56:54.705Z,15.40
2023-01-17T01:59:22.873Z,14.05
2023-01-17T02:01:51.711Z,16.37
2023-01-17T02:04:19.409Z,14.95
2023-01-17T02:06:50.307Z,14.32
2023-01-17T02:09:18.225Z,14.20
2023-01-17T02:11:47.380Z,15.27
2023-01-17T02:14:21.916Z,15.98
2023-01-17T02:17:08.537Z,18.87
2023-01-17T02:20:20.730Z,17.27
2023-01-17T02:23:00.189Z,17.05
2023-01-17T02:25:27.269Z,25.48
2023-01-17T02:28:21.018Z,24.23
2023-01-17T02:30:54.708Z,25.62
2023-01-17T02:33:21.998Z,22.85
2023-01-17T02:35:56.949Z,20.35
2023-01-17T02:38:38.325Z,23.45
2023-01-17T02:41:09.537Z,22.17
2023-01-17T02:43:37.558Z,20.92
2023-01-17T02:46:04.814Z,19.40
2023-01-17T02:48:33.728Z,18.62
2023-01-17T02:51:39.398Z,15.85
2023-01-17T02:54:12.377Z,15.75
2023-01-17T02:59:33.026Z,15.32
2023-01-17T03:02:20.223Z,15.70
2023-01-17T03:05:20.396Z,14.70
2023-01-17T03:07:48.524Z,14.23
2023-01-17T03:10:16.511Z,15.57
2023-01-17T03:12:43.815Z,14.68
2023-01-17T03:15:14.113Z,15.07
2023-01-17T03:17:46.774Z,14.63
2023-01-17T03:20:14.273Z,12.82
2023-01-17T03:22:41.595Z,13.18
2023-01-17T03:25:08.740Z,13.13
2023-01-17T03:27:36.550Z,11.55
2023-01-17T03:30:04.584Z,11.73
2023-01-17T03:32:31.630Z,10.88
2023-01-17T03:34:59.003Z,12.13
2023-01-17T03:37:26.033Z,12.45
2023-01-17T03:39:53.300Z,12.85
2023-01-17T03:42:20.688Z,12.02
2023-01-17T03:44:47.753Z,11.43
2023-01-17T03:47:14.792Z,11.80
2023-01-17T03:49:42.151Z,11.55
2023-01-17T03:52:09.242Z,9.25
2023-01-17T03:54:36.508Z,9.27
2023-01-17T03:57:03.965Z,9.55
2023-01-17T03:59:33.233Z,8.77
2023-01-17T04:02:01.012Z,8.70
2023-01-17T04:04:28.481Z,7.97
2023-01-17T04:06:55.568Z,8.40
2023-01-17T04:09:22.639Z,7.65
2023-01-17T04:11:50.969Z,7.35
2023-01-17T04:14:18.179Z,6.97
2023-01-17T04:16:45.297Z,6.12
2023-01-17T04:19:13.249Z,6.35
2023-01-17T04:21:40.658Z,5.93
2023-01-17T04:24:07.824Z,6.87
2023-01-17T04:26:35.503Z,6.50
2023-01-17T04:29:02.712Z,6.18
2023-01-17T04:31:29.712Z,6.03
2023-01-17T04:33:57.414Z,5.57
2023-01-17T04:36:24.525Z,4.62
2023-01-17T04:38:51.502Z,4.82
2023-01-17T04:41:18.877Z,4.00
2023-01-17T04:43:46.144Z,3.92
2023-01-17T04:46:13.288Z,2.90
2023-01-17T04:48:40.682Z,2.65
2023-01-17T04:51:07.762Z,2.67
2023-01-17T04:53:35.276Z,2.70
2023-01-17T04:56:03.071Z,2.12
2023-01-17T04:58:30.714Z,2.15
2023-01-17T05:01:02.124Z,2.30
2023-01-17T05:03:29.575Z,1.83
2023-01-17T05:05:56.745Z,2.40
2023-01-17T05:08:23.912Z,2.00
2023-01-17T05:10:51.725Z,1.90
2023-01-17T05:13:19.529Z,2.25
2023-01-17T05:15:47.011Z,2.47
2023-01-17T05:18:17.824Z,3.03
2023-01-17T05:20:45.317Z,2.00
2023-01-17T05:23:12.448Z,2.42
2023-01-17T05:25:44.375Z,2.10
2023-01-17T05:28:12.760Z,2.20
2023-01-17T05:30:40.200Z,2.42
2023-01-17T05:33:08.256Z,2.15
2023-01-17T05:35:35.319Z,2.58
2023-01-17T05:38:02.831Z,2.83
2023-01-17T05:40:31.581Z,2.47
2023-01-17T05:42:59.774Z,3.03
2023-01-17T05:45:29.186Z,2.65
2023-01-17T05:47:57.284Z,2.47
2023-01-17T05:50:27.702Z,2.12
2023-01-17T05:52:57.475Z,2.35
2023-01-17T05:55:25.349Z,2.28
2023-01-17T05:57:53.113Z,2.22
2023-01-17T06:00:20.921Z,2.80
2023-01-17T06:02:49.191Z,2.37
2023-01-17T06:05:16.689Z,2.60
2023-01-17T06:07:45.362Z,2.08
2023-01-17T06:10:14.553Z,1.90
2023-01-17T06:12:43.230Z,2.20
2023-01-17T06:15:11.316Z,2.12
2023-01-17T06:17:38.966Z,2.95
2023-01-17T06:20:07.661Z,2.22
2023-01-17T06:22:34.921Z,2.85
2023-01-17T06:25:02.898Z,2.65
2023-01-17T06:27:29.981Z,3.17
2023-01-17T06:29:57.095Z,3.12
2023-01-17T06:32:25.049Z,2.92
2023-01-17T06:34:52.233Z,3.03
2023-01-17T06:37:19.296Z,3.15
2023-01-17T06:39:46.728Z,3.87
2023-01-17T06:42:13.797Z,3.03
2023-01-17T06:44:40.979Z,3.60
2023-01-17T06:47:08.323Z,3.22
2023-01-17T06:49:35.453Z,3.33
2023-01-17T06:52:02.569Z,3.47
2023-01-17T06:54:30.066Z,3.28
2023-01-17T06:56:57.181Z,3.62
2023-01-17T06:59:25.249Z,2.65
2023-01-17T07:01:52.708Z,3.25
2023-01-17T07:04:20.018Z,3.20
2023-01-17T07:06:47.082Z,2.70
2023-01-17T07:09:14.809Z,3.25
2023-01-17T07:11:41.937Z,3.37
2023-01-17T07:14:15.377Z,2.85
2023-01-17T07:16:45.989Z,2.95
2023-01-17T07:19:13.826Z,2.97
2023-01-17T07:21:40.955Z,2.95
2023-01-17T07:24:09.272Z,2.92
2023-01-17T07:26:40.252Z,1.73
2023-01-17T07:29:07.318Z,1.87
2023-01-17T07:31:36.715Z,1.80
2023-01-17T07:34:03.909Z,1.70
2023-01-17T07:36:31.060Z,1.50
2023-01-17T07:38:58.401Z,1.40
2023-01-17T07:41:25.739Z,1.23
2023-01-17T07:43:54.323Z,1.27
2023-01-17T07:46:23.764Z,0.90
2023-01-17T07:48:51.047Z,1.12
2023-01-17T07:51:18.263Z,0.90
2023-01-17T07:53:45.840Z,0.88
2023-01-17T07:56:12.890Z,1.23
2023-01-17T07:58:39.975Z,0.90
2023-01-17T08:01:09.517Z,0.90
2023-01-17T08:03:40.041Z,1.30
2023-01-17T08:06:16.242Z,0.80
2023-01-17T08:08:44.296Z,0.90
2023-01-17T08:11:11.320Z,0.70
2023-01-17T08:13:38.283Z,0.75
2023-01-17T08:16:06.341Z,0.93
2023-01-17T08:18:33.464Z,0.50
2023-01-17T08:21:00.590Z,0.70
2023-01-17T08:23:28.333Z,0.80
2023-01-17T08:26:00.587Z,0.50
2023-01-17T08:28:27.893Z,0.50
2023-01-17T08:30:54.917Z,0.25
2023-01-17T08:33:21.908Z,0.55
2023-01-17T08:35:53.736Z,0.40
2023-01-17T08:38:23.803Z,0.35
2023-01-17T08:40:51.191Z,0.45
2023-01-17T08:43:19.177Z,0.40
2023-01-17T08:45:48.269Z,0.22
2023-01-17T08:48:16.634Z,0.40
2023-01-17T08:50:43.649Z,0.20
2023-01-17T08:53:10.963Z,0.40
2023-01-17T08:55:40.945Z,0.40
2023-01-17T08:58:08.511Z,0.60
2023-01-17T09:00:37.293Z,0.40
2023-01-17T09:03:10.416Z,0.35
2023-01-17T09:05:37.689Z,0.30
2023-01-17T09:08:05.676Z,0.55
2023-01-17T09:10:33.627Z,0.28
2023-01-17T09:13:00.653Z,0.40
2023-01-17T09:15:28.124Z,0.37
2023-01-17T09:17:56.590Z,0.30
2023-01-17T09:20:24.683Z,0.40
2023-01-17T09:22:52.316Z,0.40
2023-01-17T09:25:19.634Z,0.50
2023-01-17T09:27:47.044Z,0.40
2023-01-17T09:30:14.715Z,0.30
2023-01-17T09:32:41.691Z,0.50
2023-01-17T09:35:09.674Z,0.70
2023-01-17T09:37:37.182Z,1.02
2023-01-17T09:40:04.659Z,0.80
2023-01-17T09:42:37.138Z,1.20
2023-01-17T09:45:05.615Z,0.90
2023-01-17T09:47:42.691Z,0.90
2023-01-17T09:50:25.222Z,0.55
2023-01-17T09:53:00.647Z,0.45
2023-01-17T09:55:35.619Z,0.75
2023-01-17T09:58:21.927Z,0.50
2023-01-17T10:00:56.180Z,0.65
2023-01-17T10:03:42.029Z,1.00
2023-01-17T10:06:49.511Z,0.70
2023-01-17T10:09:53.727Z,0.47
2023-01-17T10:12:31.769Z,0.70
2023-01-17T10:15:17.910Z,0.57
2023-01-17T10:18:06.165Z,0.40
2023-01-17T10:20:45.750Z,0.50
2023-01-17T10:23:41.649Z,0.30
2023-01-17T10:26:15.621Z,0.50
2023-01-17T10:28:51.668Z,0.50
2023-01-17T10:31:18.968Z,0.57
2023-01-17T10:33:57.619Z,0.60
2023-01-17T10:36:32.563Z,0.55
2023-01-17T10:39:25.949Z,0.47
2023-01-17T10:41:59.634Z,0.52
2023-01-17T10:44:35.567Z,0.70
2023-01-17T10:47:08.643Z,0.60
2023-01-17T10:49:39.088Z,0.22
2023-01-17T10:52:13.348Z,0.43
2023-01-17T10:55:05.112Z,0.40
2023-01-17T10:57:39.397Z,0.32
2023-01-17T11:00:45.574Z,0.52
2023-01-17T11:03:16.030Z,0.65
2023-01-17T11:05:43.917Z,0.50
2023-01-17T11:08:13.586Z,0.70
2023-01-17T11:10:43.798Z,0.90
2023-01-17T11:13:30.716Z,0.50
2023-01-17T11:16:03.638Z,0.60
2023-01-17T11:18:34.533Z,0.50
2023-01-17T11:21:17.444Z,0.50
2023-01-17T11:23:50.055Z,0.62
2023-01-17T11:26:29.713Z,0.55
2023-01-17T11:29:39.940Z,0.70
2023-01-17T11:32:22.152Z,0.70
2023-01-17T11:35:42.016Z,0.55
2023-01-17T11:38:20.382Z,0.80
2023-01-17T11:40:49.366Z,0.70
2023-01-17T11:43:27.011Z,0.70
2023-01-17T11:46:14.217Z,0.62
2023-01-17T11:48:41.561Z,0.80
2023-01-17T11:51:19.464Z,0.75
2023-01-17T11:53:49.930Z,0.60
2023-01-17T11:56:28.046Z,0.65
2023-01-17T11:59:26.961Z,0.80
2023-01-17T12:02:17.944Z,0.60
2023-01-17T12:04:45.202Z,0.60
2023-01-17T12:07:41.347Z,0.70
2023-01-17T12:10:26.025Z,1.05
2023-01-17T12:15:46.077Z,0.65
2023-01-17T12:18:13.574Z,0.65
2023-01-17T12:20:48.081Z,0.95
2023-01-17T12:23:56.925Z,0.65
2023-01-17T12:26:43.481Z,0.80
2023-01-17T12:29:31.358Z,1.10
2023-01-17T12:32:50.738Z,0.90
2023-01-17T12:35:20.205Z,0.93
2023-01-17T12:38:00.389Z,1.17
2023-01-17T12:40:37.717Z,1.08
2023-01-17T12:43:08.172Z,1.05
2023-01-17T12:45:39.134Z,0.82
2023-01-17T12:48:11.244Z,1.10
2023-01-17T12:51:05.422Z,1.02
2023-01-17T12:53:42.552Z,0.90
2023-01-17T12:56:19.254Z,0.80
2023-01-17T12:58:50.542Z,0.90
2023-01-17T13:01:29.526Z,0.95
2023-01-17T13:04:00.381Z,1.77
2023-01-17T13:06:51.629Z,2.03
2023-01-17T13:09:22.492Z,1.95
2023-01-17T13:12:05.537Z,1.23
2023-01-17T13:14:32.961Z,1.48
2023-01-17T13:17:24.584Z,1.40
2023-01-17T13:20:01.730Z,1.45
2023-01-17T13:22:30.235Z,1.30
2023-01-17T13:25:00.366Z,1.60
2023-01-17T13:27:38.954Z,1.60
2023-01-17T13:30:43.514Z,2.20
2023-01-17T13:33:22.714Z,2.57
2023-01-17T13:36:05.200Z,1.95
2023-01-17T13:38:55.018Z,2.12
2023-01-17T13:41:34.427Z,2.42
2023-01-17T13:44:25.499Z,1.95
2023-01-17T13:47:17.087Z,2.10
2023-01-17T13:49:56.280Z,2.40
2023-01-17T13:52:26.291Z,2.65
2023-01-17T13:54:58.056Z,3.42
2023-01-17T13:57:30.231Z,3.05
2023-01-17T14:00:21.290Z,2.45
2023-01-17T14:02:49.983Z,2.60
2023-01-17T14:05:22.932Z,3.87
2023-01-17T14:07:53.354Z,3.15
2023-01-17T14:10:34.478Z,3.90
2023-01-17T14:13:02.154Z,5.20
2023-01-17T14:15:31.641Z,3.90
2023-01-17T14:18:00.200Z,3.25
2023-01-17T14:20:27.500Z,2.90
2023-01-17T14:23:01.516Z,2.83
2023-01-17T14:25:30.410Z,2.47
2023-01-17T14:28:01.635Z,2.53
2023-01-17T14:30:34.780Z,2.25
2023-01-17T14:33:01.838Z,2.85
2023-01-17T14:35:37.103Z,2.70
2023-01-17T14:38:18.992Z,3.20
2023-01-17T14:40:55.457Z,2.40
2023-01-17T14:43:24.101Z,2.40
2023-01-17T14:46:07.119Z,2.78
2023-01-17T14:48:39.819Z,2.47
2023-01-17T14:51:28.261Z,2.65
2023-01-17T14:53:56.658Z,3.03
2023-01-17T14:56:25.948Z,2.70
2023-01-17T14:59:22.749Z,3.40
2023-01-17T15:02:07.043Z,3.03
2023-01-17T15:04:39.483Z,5.18
2023-01-17T15:07:14.424Z,4.25
2023-01-17T15:09:44.524Z,3.75
2023-01-17T15:12:14.430Z,4.28
2023-01-17T15:14:45.884Z,3.25
2023-01-17T15:17:20.995Z,3.05
2023-01-17T15:19:50.231Z,4.10
2023-01-17T15:22:19.044Z,3.67
2023-01-17T15:24:46.535Z,3.45
2023-01-17T15:27:17.690Z,2.83
2023-01-17T15:29:47.153Z,2.53
2023-01-17T15:32:22.608Z,3.22
2023-01-17T15:34:51.075Z,2.35
2023-01-17T15:37:28.783Z,2.78
2023-01-17T15:40:14.770Z,3.05
2023-01-17T15:42:43.525Z,3.20
2023-01-17T15:45:15.627Z,2.97
2023-01-17T15:47:43.089Z,2.70
2023-01-17T15:50:27.893Z,2.90
2023-01-17T15:55:33.034Z,2.50
2023-01-17T15:58:00.752Z,2.62
2023-01-17T16:00:37.819Z,3.10
2023-01-17T16:03:20.225Z,2.58
2023-01-17T16:05:47.871Z,3.25
2023-01-17T16:08:16.268Z,2.95
2023-01-17T16:10:43.925Z,2.62
2023-01-17T16:13:12.942Z,2.55
2023-01-17T16:15:42.783Z,2.85
2023-01-17T16:18:15.406Z,3.20
2023-01-17T16:20:58.198Z,3.45
2023-01-17T16:23:25.552Z,3.75
2023-01-17T16:25:53.993Z,3.08
2023-01-17T16:28:21.144Z,3.25
2023-01-17T16:30:48.893Z,3.12
2023-01-17T16:33:16.346Z,3.62
2023-01-17T16:35:43.378Z,3.85
2023-01-17T16:38:12.497Z,3.22
2023-01-17T16:40:41.875Z,4.20
2023-01-17T16:43:11.470Z,2.97
2023-01-17T16:45:52.078Z,3.60
2023-01-17T16:48:20.316Z,3.55
2023-01-17T16:50:50.735Z,4.10
2023-01-17T16:53:24.290Z,3.50
2023-01-17T16:58:20.459Z,4.68
2023-01-17T17:00:47.784Z,3.87
2023-01-17T17:03:19.803Z,3.67
2023-01-17T17:05:55.264Z,5.10
2023-01-17T17:08:24.051Z,5.35
2023-01-17T17:10:51.491Z,5.12
2023-01-17T17:13:18.664Z,4.25
2023-01-17T17:15:46.281Z,5.07
2023-01-17T17:18:18.009Z,3.90
2023-01-17T17:20:45.444Z,5.03
2023-01-17T17:23:12.594Z,4.35
2023-01-17T17:25:40.078Z,3.80
2023-01-17T17:28:07.474Z,4.28
2023-01-17T17:30:36.099Z,4.47
2023-01-17T17:33:04.631Z,5.05
2023-01-17T17:35:35.158Z,4.60
2023-01-17T17:38:02.238Z,4.55
2023-01-17T17:40:29.490Z,4.28
2023-01-17T17:42:56.855Z,5.03
2023-01-17T17:45:23.960Z,4.12
2023-01-17T17:47:51.225Z,4.43
2023-01-17T17:50:18.815Z,4.65
2023-01-17T17:52:48.173Z,3.90
2023-01-17T17:55:19.011Z,3.95
2023-01-17T17:57:46.571Z,3.95
2023-01-17T18:00:14.817Z,3.50
2023-01-17T18:02:42.515Z,4.22
2023-01-17T18:05:09.921Z,3.70
2023-01-17T18:07:37.092Z,4.40
2023-01-17T18:10:05.012Z,4.43
2023-01-17T18:12:32.150Z,5.10
2023-01-17T18:14:59.252Z,4.85
2023-01-17T18:17:26.658Z,5.12
2023-01-17T18:19:53.743Z,4.97
2023-01-17T18:22:20.827Z,5.20
2023-01-17T18:24:48.184Z,5.40
2023-01-17T18:27:15.319Z,5.18
2023-01-17T18:29:42.333Z,4.37
2023-01-17T18:32:09.685Z,4.07
2023-01-17T18:34:41.399Z,3.90
2023-01-17T18:37:08.715Z,4.03
2023-01-17T18:39:36.015Z,4.50
2023-01-17T18:42:03.036Z,4.30
2023-01-17T18:44:30.195Z,3.45
2023-01-17T18:47:04.475Z,3.50
2023-01-17T18:49:33.020Z,3.33
2023-01-17T18:52:00.337Z,3.40
2023-01-17T18:54:28.283Z,3.20
2023-01-17T18:56:56.036Z,3.10
2023-01-17T18:59:23.560Z,3.72
2023-01-17T19:01:50.727Z,3.37
2023-01-17T19:04:18.229Z,3.30
2023-01-17T19:06:47.596Z,2.33
2023-01-17T19:09:15.895Z,2.87
2023-01-17T19:11:44.867Z,2.97
2023-01-17T19:14:12.750Z,1.77
2023-01-17T19:16:41.468Z,1.80
2023-01-17T19:19:12.262Z,1.92
2023-01-17T19:21:39.843Z,1.40
2023-01-17T19:24:07.508Z,1.10
2023-01-17T19:26:34.540Z,1.08
2023-01-17T19:29:05.132Z,1.20
2023-01-17T19:31:35.783Z,1.27
2023-01-17T19:34:06.246Z,1.33
2023-01-17T19:36:35.022Z,0.80
2023-01-17T19:39:05.938Z,0.70
2023-01-17T19:41:35.527Z,1.30
2023-01-17T19:44:07.208Z,1.20
2023-01-17T19:46:35.295Z,1.52
2023-01-17T19:49:04.124Z,1.67
2023-01-17T19:51:31.249Z,2.00
2023-01-17T19:54:01.857Z,1.90
2023-01-17T19:56:30.099Z,1.73
2023-01-17T19:59:00.851Z,0.90
2023-01-17T20:01:31.044Z,1.10
2023-01-17T20:03:59.662Z,0.93
2023-01-17T20:06:29.750Z,0.93
2023-01-17T20:08:56.772Z,0.95
2023-01-17T20:11:25.310Z,0.90
2023-01-17T20:13:54.624Z,0.98
2023-01-17T20:16:22.908Z,0.85
2023-01-17T20:18:50.809Z,0.80
2023-01-17T20:21:20.257Z,0.60
2023-01-17T20:23:48.088Z,0.60
2023-01-17T20:26:20.521Z,0.70
2023-01-17T20:28:49.478Z,0.90
2023-01-17T20:31:19.333Z,0.73
2023-01-17T20:33:47.370Z,0.62
2023-01-17T20:36:15.998Z,0.62
2023-01-17T20:38:43.926Z,0.50
2023-01-17T20:41:11.756Z,0.60
2023-01-17T20:43:38.918Z,0.68
2023-01-17T20:46:06.892Z,0.57
2023-01-17T20:48:34.111Z,0.52
2023-01-17T20:51:05.988Z,0.65
2023-01-17T20:53:34.971Z,0.60
2023-01-17T20:56:02.092Z,1.08
2023-01-17T20:58:30.672Z,0.70
2023-01-17T21:00:58.864Z,0.55
2023-01-17T21:03:29.317Z,0.68
2023-01-17T21:06:04.747Z,0.50
2023-01-17T21:08:34.103Z,0.60
2023-01-17T21:11:01.831Z,0.40
2023-01-17T21:13:28.942Z,0.55
2023-01-17T21:15:56.326Z,0.60
2023-01-17T21:18:27.290Z,0.70
2023-01-17T21:20:54.342Z,0.70
2023-01-17T21:23:23.507Z,0.73
2023-01-17T21:25:55.678Z,0.60
2023-01-17T21:28:25.613Z,0.60
2023-01-17T21:30:53.371Z,1.12
2023-01-17T21:33:21.569Z,0.82
2023-01-17T21:35:48.993Z,0.70
2023-01-17T21:38:16.275Z,0.95
2023-01-17T21:40:44.021Z,0.85
2023-01-17T21:43:11.727Z,0.80
2023-01-17T21:45:39.561Z,0.60
2023-01-17T21:48:07.406Z,0.80
2023-01-17T21:50:34.777Z,1.00
2023-01-17T21:53:02.950Z,1.10
2023-01-17T21:55:48.628Z,1.25
2023-01-17T21:58:35.738Z,1.08
2023-01-17T22:01:18.942Z,1.35
2023-01-17T22:03:51.640Z,1.10
2023-01-17T22:06:19.943Z,1.10
2023-01-17T22:08:47.490Z,1.45
2023-01-17T22:11:16.962Z,1.55
2023-01-17T22:13:44.758Z,1.58
2023-01-17T22:16:17.742Z,1.65
2023-01-17T22:18:45.615Z,1.70
2023-01-17T22:21:16.967Z,1.67
2023-01-17T22:23:52.211Z,1.42
2023-01-17T22:26:21.353Z,1.80
2023-01-17T22:28:48.690Z,1.75
2023-01-17T22:31:23.804Z,2.00
2023-01-17T22:33:56.186Z,2.05
2023-01-17T22:36:23.851Z,2.08
2023-01-17T22:38:51.449Z,2.10
2023-01-17T22:41:21.598Z,1.98
2023-01-17T22:43:53.125Z,1.95
2023-01-17T22:46:23.350Z,1.92
2023-01-17T22:48:52.171Z,2.50
2023-01-17T22:51:20.718Z,2.75
2023-01-17T22:53:50.370Z,2.20
2023-01-17T22:56:20.198Z,2.50
2023-01-17T22:58:49.020Z,3.03
2023-01-17T23:01:18.876Z,2.95
2023-01-17T23:03:46.673Z,3.20
2023-01-17T23:06:16.716Z,3.12
2023-01-17T23:08:45.944Z,2.83
2023-01-17T23:11:43.637Z,2.80
2023-01-17T23:14:19.818Z,2.47
2023-01-17T23:17:14.238Z,2.47
2023-01-17T23:19:42.350Z,2.90
2023-01-17T23:22:20.880Z,2.37
2023-01-17T23:24:51.899Z,2.72
2023-01-17T23:27:41.966Z,2.62
2023-01-17T23:30:14.469Z,2.85
2023-01-17T23:32:53.036Z,2.65
2023-01-17T23:35:22.218Z,2.72
2023-01-17T23:38:08.386Z,3.33
2023-01-17T23:40:36.831Z,3.08
2023-01-17T23:43:23.085Z,4.30
2023-01-17T23:45:54.397Z,4.37
2023-01-17T23:48:24.655Z,4.12
2023-01-17T23:50:52.135Z,3.85
2023-01-17T23:53:23.610Z,4.25
2023-01-17T23:55:52.832Z,3.92
2023-01-17T23:58:21.683Z,4.20
